createdAt,value
2022-11-19T00:02:02.225Z,1.05
2022-11-19T00:04:30.314Z,1.33
2022-11-19T00:06:58.531Z,1.23
2022-11-19T00:09:28.011Z,1.27
2022-11-19T00:12:21.975Z,1.48
2022-11-19T00:14:50.312Z,1.00
2022-11-19T00:17:18.329Z,1.30
2022-11-19T00:19:46.417Z,1.38
2022-11-19T00:22:14.407Z,1.17
2022-11-19T00:24:43.752Z,1.17
2022-11-19T00:27:11.742Z,1.40
2022-11-19T00:29:39.916Z,1.65
2022-11-19T00:32:07.985Z,1.05
2022-11-19T00:34:35.994Z,1.20
2022-11-19T00:37:04.212Z,1.38
2022-11-19T00:39:32.238Z,1.40
2022-11-19T00:42:01.846Z,1.30
2022-11-19T00:44:34.089Z,1.20
2022-11-19T00:47:05.395Z,1.13
2022-11-19T00:49:33.453Z,1.10
2022-11-19T00:52:01.392Z,1.20
2022-11-19T00:54:29.380Z,1.42
2022-11-19T00:56:57.355Z,1.27
2022-11-19T00:59:26.790Z,1.15
2022-11-19T01:01:54.745Z,1.20
2022-11-19T01:04:22.852Z,1.40
2022-11-19T01:06:50.960Z,1.30
2022-11-19T01:09:19.166Z,1.20
2022-11-19T01:11:47.473Z,1.30
2022-11-19T01:14:15.560Z,1.30
2022-11-19T01:16:45.009Z,1.17
2022-11-19T01:19:16.637Z,1.60
2022-11-19T01:21:44.981Z,1.52
2022-11-19T01:24:12.930Z,1.25
2022-11-19T01:26:45.454Z,1.13
2022-11-19T01:29:14.186Z,1.40
2022-11-19T01:31:42.238Z,1.23
2022-11-19T01:34:11.548Z,1.50
2022-11-19T01:36:39.508Z,1.52
2022-11-19T01:39:07.553Z,1.65
2022-11-19T01:41:35.526Z,1.95
2022-11-19T01:44:05.033Z,1.60
2022-11-19T01:46:35.325Z,1.83
2022-11-19T01:49:06.664Z,1.40
2022-11-19T01:51:38.969Z,1.55
2022-11-19T01:54:11.742Z,1.60
2022-11-19T01:56:40.501Z,1.98
2022-11-19T01:59:15.339Z,1.50
2022-11-19T02:01:45.115Z,1.70
2022-11-19T02:04:14.869Z,1.90
2022-11-19T02:06:45.647Z,1.63
2022-11-19T02:09:13.611Z,1.40
2022-11-19T02:12:00.376Z,1.60
2022-11-19T02:14:54.870Z,1.67
2022-11-19T02:17:35.216Z,1.60
2022-11-19T02:20:42.241Z,1.52
2022-11-19T02:23:39.580Z,1.60
2022-11-19T02:27:02.933Z,1.95
2022-11-19T02:30:01.056Z,1.58
2022-11-19T02:32:34.033Z,1.45
2022-11-19T02:35:08.084Z,1.60
2022-11-19T02:37:42.907Z,1.70
2022-11-19T02:40:16.492Z,1.50
2022-11-19T02:42:50.612Z,1.60
2022-11-19T02:45:23.861Z,1.38
2022-11-19T02:47:55.183Z,1.17
2022-11-19T02:50:32.800Z,2.00
2022-11-19T02:53:00.987Z,1.10
2022-11-19T02:55:29.161Z,1.50
2022-11-19T02:58:02.548Z,1.20
2022-11-19T03:00:58.954Z,1.00
2022-11-19T03:03:44.907Z,1.40
2022-11-19T03:06:17.298Z,1.40
2022-11-19T03:08:46.285Z,1.30
2022-11-19T03:11:23.127Z,1.40
2022-11-19T03:14:15.048Z,1.30
2022-11-19T03:16:53.428Z,1.27
2022-11-19T03:19:34.182Z,1.40
2022-11-19T03:22:07.917Z,1.20
2022-11-19T03:24:41.283Z,1.17
2022-11-19T03:27:14.757Z,1.27
2022-11-19T03:29:46.875Z,1.40
2022-11-19T03:32:20.375Z,1.33
2022-11-19T03:34:52.022Z,1.58
2022-11-19T03:37:24.382Z,1.23
2022-11-19T03:39:54.864Z,1.83
2022-11-19T03:42:24.855Z,1.58
2022-11-19T03:44:57.423Z,1.73
2022-11-19T03:47:32.126Z,1.40
2022-11-19T03:50:06.004Z,1.63
2022-11-19T03:52:34.512Z,1.20
2022-11-19T03:55:02.797Z,1.50
2022-11-19T03:57:30.732Z,1.40
2022-11-19T03:59:58.769Z,1.48
2022-11-19T04:02:28.108Z,1.60
2022-11-19T04:04:56.054Z,1.30
2022-11-19T04:07:25.505Z,1.52
2022-11-19T04:09:53.480Z,1.60
2022-11-19T04:12:23.113Z,1.60
2022-11-19T04:14:51.325Z,1.50
2022-11-19T04:17:20.353Z,1.40
2022-11-19T04:19:49.674Z,1.40
2022-11-19T04:22:17.625Z,1.17
2022-11-19T04:24:45.581Z,1.33
2022-11-19T04:27:13.585Z,1.30
2022-11-19T04:29:41.521Z,1.27
2022-11-19T04:32:09.505Z,1.20
2022-11-19T04:34:37.495Z,1.25
2022-11-19T04:37:06.834Z,1.30
2022-11-19T04:39:34.745Z,1.20
2022-11-19T04:42:02.700Z,1.30
2022-11-19T04:44:30.735Z,1.20
2022-11-19T04:46:59.621Z,1.23
2022-11-19T04:49:27.610Z,1.30
2022-11-19T04:51:55.649Z,1.45
2022-11-19T04:54:25.016Z,1.55
2022-11-19T04:56:53.002Z,1.35
2022-11-19T04:59:21.321Z,1.50
2022-11-19T05:01:50.800Z,1.38
2022-11-19T05:04:18.803Z,1.30
2022-11-19T05:06:46.768Z,1.40
2022-11-19T05:09:14.753Z,1.55
2022-11-19T05:11:44.125Z,1.60
2022-11-19T05:14:12.139Z,1.48
2022-11-19T05:16:40.215Z,1.60
2022-11-19T05:19:08.297Z,1.80
2022-11-19T05:21:36.520Z,1.90
2022-11-19T05:24:04.568Z,2.05
2022-11-19T05:26:32.476Z,2.30
2022-11-19T05:29:01.880Z,2.28
2022-11-19T05:31:29.816Z,2.28
2022-11-19T05:33:57.792Z,1.83
2022-11-19T05:36:25.750Z,2.00
2022-11-19T05:38:53.701Z,2.10
2022-11-19T05:41:21.816Z,1.95
2022-11-19T05:43:49.833Z,2.13
2022-11-19T05:46:19.894Z,2.00
2022-11-19T05:48:47.818Z,2.00
2022-11-19T05:51:16.177Z,2.25
2022-11-19T05:53:44.901Z,2.10
2022-11-19T05:56:13.309Z,2.10
2022-11-19T05:58:41.337Z,2.28
2022-11-19T06:01:09.327Z,2.63
2022-11-19T06:03:38.755Z,2.50
2022-11-19T06:06:07.039Z,2.33
2022-11-19T06:08:35.252Z,2.40
2022-11-19T06:11:04.778Z,2.58
2022-11-19T06:13:32.695Z,2.10
2022-11-19T06:16:00.634Z,2.13
2022-11-19T06:18:28.582Z,1.80
2022-11-19T06:20:57.897Z,2.17
2022-11-19T06:23:25.901Z,2.20
2022-11-19T06:25:55.688Z,2.20
2022-11-19T06:28:23.648Z,2.05
2022-11-19T06:30:51.553Z,2.30
2022-11-19T06:33:19.511Z,2.10
2022-11-19T06:35:47.531Z,2.10
2022-11-19T06:38:17.153Z,2.67
2022-11-19T06:40:46.698Z,2.60
2022-11-19T06:43:14.779Z,2.10
2022-11-19T06:45:42.689Z,2.03
2022-11-19T06:48:10.628Z,2.10
2022-11-19T06:50:38.609Z,2.00
2022-11-19T06:53:06.620Z,2.30
2022-11-19T06:55:36.029Z,2.03
2022-11-19T06:58:04.610Z,2.40
2022-11-19T07:00:33.186Z,1.70
2022-11-19T07:03:01.140Z,1.52
2022-11-19T07:05:29.227Z,1.83
2022-11-19T07:08:02.633Z,1.80
2022-11-19T07:10:31.622Z,1.63
2022-11-19T07:13:01.158Z,1.70
2022-11-19T07:15:29.148Z,1.90
2022-11-19T07:17:57.072Z,1.70
2022-11-19T07:20:25.090Z,1.98
2022-11-19T07:22:58.792Z,1.77
2022-11-19T07:25:27.297Z,1.95
2022-11-19T07:27:55.265Z,1.90
2022-11-19T07:30:24.608Z,1.98
2022-11-19T07:32:55.032Z,1.75
2022-11-19T07:35:23.075Z,1.67
2022-11-19T07:37:51.020Z,1.65
2022-11-19T07:40:19.237Z,1.88
2022-11-19T07:42:53.144Z,1.92
2022-11-19T07:45:23.217Z,1.58
2022-11-19T07:47:52.513Z,1.60
2022-11-19T07:50:20.809Z,1.70
2022-11-19T07:52:48.789Z,1.63
2022-11-19T07:55:16.877Z,1.70
2022-11-19T07:57:44.846Z,1.17
2022-11-19T08:00:14.149Z,1.35
2022-11-19T08:02:42.042Z,0.95
2022-11-19T08:05:11.674Z,1.20
2022-11-19T08:07:40.053Z,1.55
2022-11-19T08:10:09.419Z,2.10
2022-11-19T08:12:37.600Z,1.60
2022-11-19T08:15:06.188Z,1.42
2022-11-19T08:17:51.492Z,2.03
2022-11-19T08:20:20.823Z,1.40
2022-11-19T08:22:51.105Z,1.60
2022-11-19T08:25:19.562Z,5.63
2022-11-19T08:27:47.537Z,3.78
2022-11-19T08:30:16.049Z,4.22
2022-11-19T08:32:44.150Z,2.78
2022-11-19T08:35:12.143Z,2.03
2022-11-19T08:37:41.975Z,3.70
2022-11-19T08:40:11.052Z,1.70
2022-11-19T08:42:56.272Z,2.25
2022-11-19T08:45:24.328Z,1.85
2022-11-19T08:47:52.276Z,1.65
2022-11-19T08:50:20.925Z,1.73
2022-11-19T08:52:56.559Z,1.77
2022-11-19T08:55:25.062Z,2.47
2022-11-19T08:57:53.068Z,2.78
2022-11-19T09:00:21.431Z,2.10
2022-11-19T09:02:49.366Z,1.70
2022-11-19T09:05:17.331Z,1.60
2022-11-19T09:07:45.435Z,1.70
2022-11-19T09:10:14.763Z,1.60
2022-11-19T09:12:42.694Z,2.05
2022-11-19T09:15:11.296Z,2.47
2022-11-19T09:17:45.280Z,1.33
2022-11-19T09:20:14.889Z,1.45
2022-11-19T09:22:42.962Z,1.40
2022-11-19T09:25:11.307Z,1.50
2022-11-19T09:27:40.584Z,1.55
2022-11-19T09:30:10.129Z,1.40
2022-11-19T09:32:38.477Z,1.70
2022-11-19T09:35:07.317Z,1.60
2022-11-19T09:37:36.164Z,1.90
2022-11-19T09:40:04.856Z,1.77
2022-11-19T09:42:40.044Z,1.77
2022-11-19T09:45:19.511Z,1.90
2022-11-19T09:48:13.277Z,1.83
2022-11-19T09:50:53.297Z,1.90
2022-11-19T09:53:23.236Z,1.80
2022-11-19T09:55:53.861Z,1.85
2022-11-19T09:58:26.467Z,2.10
2022-11-19T10:00:56.025Z,1.63
2022-11-19T10:03:31.588Z,1.55
2022-11-19T10:06:13.673Z,1.48
2022-11-19T10:08:55.665Z,4.45
2022-11-19T10:11:34.315Z,2.67
2022-11-19T10:14:18.288Z,2.78
2022-11-19T10:16:58.245Z,3.60
2022-11-19T10:19:46.081Z,3.40
2022-11-19T10:22:21.631Z,2.90
2022-11-19T10:24:56.977Z,3.30
2022-11-19T10:27:30.827Z,3.13
2022-11-19T10:30:04.916Z,3.67
2022-11-19T10:32:39.931Z,2.63
2022-11-19T10:35:10.742Z,3.50
2022-11-19T10:37:42.839Z,2.95
2022-11-19T10:40:16.630Z,2.63
2022-11-19T10:42:50.980Z,3.00
2022-11-19T10:45:22.432Z,2.25
2022-11-19T10:47:59.057Z,3.55
2022-11-19T10:50:30.349Z,2.08
2022-11-19T10:53:00.409Z,2.70
2022-11-19T10:55:30.992Z,2.03
2022-11-19T10:58:08.229Z,2.17
2022-11-19T11:00:37.663Z,1.50
2022-11-19T11:03:17.976Z,1.48
2022-11-19T11:05:57.426Z,1.52
2022-11-19T11:08:32.587Z,2.20
2022-11-19T11:11:01.955Z,3.67
2022-11-19T11:13:54.802Z,2.65
2022-11-19T11:16:26.142Z,3.50
2022-11-19T11:18:59.118Z,2.60
2022-11-19T11:21:38.267Z,1.63
2022-11-19T11:24:06.918Z,2.17
2022-11-19T11:26:37.819Z,2.30
2022-11-19T11:29:08.707Z,2.00
2022-11-19T11:31:40.040Z,2.53
2022-11-19T11:34:17.010Z,2.88
2022-11-19T11:36:45.789Z,2.05
2022-11-19T11:39:27.774Z,3.20
2022-11-19T11:42:06.272Z,4.45
2022-11-19T11:44:38.720Z,2.50
2022-11-19T11:47:14.031Z,2.70
2022-11-19T11:49:45.812Z,1.80
2022-11-19T11:52:22.643Z,1.50
2022-11-19T11:55:01.935Z,2.20
2022-11-19T11:57:33.068Z,2.58
2022-11-19T12:00:01.801Z,3.97
2022-11-19T12:02:31.510Z,2.30
2022-11-19T12:05:03.934Z,3.67
2022-11-19T12:07:56.438Z,2.08
2022-11-19T12:10:29.962Z,2.90
2022-11-19T12:13:31.144Z,3.30
2022-11-19T12:16:08.188Z,2.15
2022-11-19T12:18:48.314Z,3.28
2022-11-19T12:21:28.679Z,6.35
2022-11-19T12:24:13.613Z,2.70
2022-11-19T12:26:48.719Z,5.72
2022-11-19T12:29:26.681Z,5.05
2022-11-19T12:32:07.369Z,10.07
2022-11-19T12:34:51.867Z,4.07
2022-11-19T12:37:37.534Z,6.68
2022-11-19T12:40:21.289Z,4.75
2022-11-19T12:43:01.031Z,3.30
2022-11-19T12:45:36.905Z,4.55
2022-11-19T12:48:34.837Z,4.88
2022-11-19T12:51:13.097Z,4.13
2022-11-19T12:54:16.475Z,4.82
2022-11-19T12:56:56.375Z,3.15
2022-11-19T12:59:45.319Z,1.73
2022-11-19T13:02:19.756Z,1.70
2022-11-19T13:04:53.906Z,1.88
2022-11-19T13:07:26.245Z,2.33
2022-11-19T13:10:02.811Z,4.70
2022-11-19T13:12:36.243Z,3.63
2022-11-19T13:15:09.265Z,2.65
2022-11-19T13:17:41.358Z,2.47
2022-11-19T13:20:18.520Z,2.03
2022-11-19T13:22:50.531Z,3.67
2022-11-19T13:25:25.419Z,1.88
2022-11-19T13:27:57.249Z,2.33
2022-11-19T13:30:27.329Z,2.60
2022-11-19T13:33:04.556Z,2.50
2022-11-19T13:35:38.458Z,3.00
2022-11-19T13:38:17.741Z,3.17
2022-11-19T13:40:50.533Z,2.47
2022-11-19T13:43:38.719Z,2.88
2022-11-19T13:46:18.797Z,2.50
2022-11-19T13:48:53.255Z,2.30
2022-11-19T13:51:29.744Z,2.17
2022-11-19T13:54:03.420Z,2.08
2022-11-19T13:56:56.725Z,2.50
2022-11-19T13:59:32.429Z,2.50
2022-11-19T14:02:28.708Z,2.65
2022-11-19T14:05:09.472Z,1.75
2022-11-19T14:07:59.948Z,2.50
2022-11-19T14:10:33.126Z,1.85
2022-11-19T14:13:15.730Z,3.03
2022-11-19T14:16:11.457Z,3.53
2022-11-19T14:19:01.014Z,4.65
2022-11-19T14:22:06.821Z,3.20
2022-11-19T14:25:11.707Z,2.50
2022-11-19T14:27:39.960Z,3.05
2022-11-19T14:30:12.004Z,2.60
2022-11-19T14:32:47.058Z,3.10
2022-11-19T14:35:36.663Z,3.80
2022-11-19T14:38:31.604Z,2.70
2022-11-19T14:41:31.057Z,2.45
2022-11-19T14:44:11.178Z,2.40
2022-11-19T14:46:43.046Z,2.08
2022-11-19T14:49:26.620Z,1.70
2022-11-19T14:51:57.365Z,1.80
2022-11-19T14:54:33.800Z,2.05
2022-11-19T14:57:05.890Z,1.58
2022-11-19T14:59:37.922Z,1.15
2022-11-19T15:02:17.141Z,1.92
2022-11-19T15:04:52.460Z,1.75
2022-11-19T15:07:35.066Z,1.70
2022-11-19T15:10:19.274Z,1.75
2022-11-19T15:12:49.434Z,1.58
2022-11-19T15:15:41.967Z,1.60
2022-11-19T15:18:40.734Z,3.20
2022-11-19T15:21:21.411Z,4.95
2022-11-19T15:24:00.774Z,6.30
2022-11-19T15:26:37.718Z,4.35
2022-11-19T15:29:14.719Z,4.05
2022-11-19T15:32:01.329Z,12.68
2022-11-19T15:35:09.658Z,8.48
2022-11-19T15:37:49.382Z,8.68
2022-11-19T15:40:22.357Z,4.97
2022-11-19T15:42:57.248Z,4.75
2022-11-19T15:45:25.863Z,8.50
2022-11-19T15:47:58.309Z,3.38
2022-11-19T15:50:29.098Z,2.17
2022-11-19T15:53:00.915Z,2.70
2022-11-19T15:55:30.929Z,2.78
2022-11-19T15:58:03.400Z,2.50
2022-11-19T16:00:32.966Z,2.72
2022-11-19T16:03:03.845Z,3.45
2022-11-19T16:05:34.101Z,5.07
2022-11-19T16:08:07.986Z,6.75
2022-11-19T16:10:38.349Z,5.72
2022-11-19T16:13:40.098Z,4.57
2022-11-19T16:16:33.408Z,3.53
2022-11-19T16:19:01.415Z,4.68
2022-11-19T16:21:41.041Z,5.53
2022-11-19T16:24:33.423Z,8.73
2022-11-19T16:27:03.374Z,5.00
2022-11-19T16:29:36.890Z,4.85
2022-11-19T16:32:07.497Z,4.10
2022-11-19T16:34:37.628Z,3.28
2022-11-19T16:37:07.002Z,3.63
2022-11-19T16:39:37.008Z,2.78
2022-11-19T16:42:16.977Z,2.72
2022-11-19T16:44:47.076Z,2.72
2022-11-19T16:47:20.721Z,4.40
2022-11-19T16:49:59.793Z,4.28
2022-11-19T16:52:40.174Z,3.95
2022-11-19T16:55:42.915Z,3.45
2022-11-19T16:58:26.281Z,2.50
2022-11-19T17:00:59.462Z,2.88
2022-11-19T17:03:35.698Z,3.58
2022-11-19T17:06:05.977Z,2.50
2022-11-19T17:08:37.564Z,2.47
2022-11-19T17:11:37.502Z,3.05
2022-11-19T17:14:21.019Z,2.40
2022-11-19T17:16:50.503Z,5.00
2022-11-19T17:19:26.353Z,9.70
2022-11-19T17:21:58.976Z,6.60
2022-11-19T17:24:32.809Z,3.67
2022-11-19T17:27:01.251Z,2.40
2022-11-19T17:29:29.486Z,2.20
2022-11-19T17:31:58.123Z,2.40
2022-11-19T17:34:32.674Z,2.17
2022-11-19T17:37:01.386Z,1.95
2022-11-19T17:39:30.785Z,6.70
2022-11-19T17:42:16.110Z,3.50
2022-11-19T17:44:44.175Z,3.40
2022-11-19T17:47:22.204Z,2.45
2022-11-19T17:49:51.163Z,2.60
2022-11-19T17:52:23.377Z,2.40
2022-11-19T17:54:54.310Z,2.30
2022-11-19T17:57:22.936Z,2.30
2022-11-19T17:59:51.068Z,2.70
2022-11-19T18:02:21.093Z,2.65
2022-11-19T18:04:49.929Z,2.15
2022-11-19T18:07:18.001Z,2.67
2022-11-19T18:09:46.137Z,2.50
2022-11-19T18:12:18.348Z,2.70
2022-11-19T18:14:48.110Z,2.90
2022-11-19T18:17:17.174Z,2.33
2022-11-19T18:19:45.284Z,2.88
2022-11-19T18:22:19.126Z,2.90
2022-11-19T18:24:49.156Z,3.15
2022-11-19T18:27:18.945Z,3.10
2022-11-19T18:29:46.921Z,2.90
2022-11-19T18:32:16.958Z,3.35
2022-11-19T18:34:45.917Z,3.17
2022-11-19T18:37:14.379Z,3.13
2022-11-19T18:39:42.354Z,3.15
2022-11-19T18:42:11.971Z,8.55
2022-11-19T18:44:41.749Z,4.30
2022-11-19T18:47:11.020Z,3.90
2022-11-19T18:49:39.405Z,4.72
2022-11-19T18:52:09.103Z,3.45
2022-11-19T18:54:37.181Z,3.22
2022-11-19T18:57:05.231Z,3.60
2022-11-19T18:59:33.392Z,4.60
2022-11-19T19:02:02.834Z,3.35
2022-11-19T19:04:31.075Z,3.13
2022-11-19T19:06:59.879Z,4.28
2022-11-19T19:09:27.956Z,4.53
2022-11-19T19:12:14.128Z,4.10
2022-11-19T19:14:43.255Z,4.78
2022-11-19T19:17:12.966Z,5.30
2022-11-19T19:19:41.446Z,4.60
2022-11-19T19:22:09.502Z,4.82
2022-11-19T19:24:38.033Z,4.80
2022-11-19T19:27:06.359Z,5.03
2022-11-19T19:29:34.519Z,4.45
2022-11-19T19:32:02.872Z,5.85
2022-11-19T19:34:32.226Z,4.50
2022-11-19T19:37:00.268Z,4.28
2022-11-19T19:39:28.305Z,4.40
2022-11-19T19:41:56.369Z,5.07
2022-11-19T19:44:24.339Z,5.93
2022-11-19T19:46:52.543Z,4.80
2022-11-19T19:49:20.948Z,5.30
2022-11-19T19:51:51.649Z,5.43
2022-11-19T19:54:19.688Z,4.00
2022-11-19T19:56:48.170Z,3.50
2022-11-19T19:59:16.490Z,4.07
2022-11-19T20:01:47.517Z,3.60
2022-11-19T20:04:15.701Z,3.80
2022-11-19T20:06:47.038Z,4.00
2022-11-19T20:09:16.506Z,3.85
2022-11-19T20:11:44.556Z,3.80
2022-11-19T20:14:13.079Z,3.38
2022-11-19T20:16:42.471Z,3.50
2022-11-19T20:19:14.204Z,3.42
2022-11-19T20:21:42.471Z,3.88
2022-11-19T20:24:12.819Z,3.33
2022-11-19T20:26:43.503Z,3.50
2022-11-19T20:29:13.974Z,3.47
2022-11-19T20:31:46.119Z,4.00
2022-11-19T20:34:14.162Z,3.65
2022-11-19T20:36:42.250Z,3.70
2022-11-19T20:39:10.666Z,3.63
2022-11-19T20:41:56.300Z,4.18
2022-11-19T20:44:25.749Z,3.97
2022-11-19T20:46:55.202Z,3.85
2022-11-19T20:49:26.687Z,3.88
2022-11-19T20:51:55.477Z,3.72
2022-11-19T20:54:24.176Z,4.03
2022-11-19T20:56:53.298Z,3.72
2022-11-19T20:59:22.305Z,3.95
2022-11-19T21:01:52.410Z,4.20
2022-11-19T21:04:21.214Z,4.53
2022-11-19T21:06:49.783Z,5.20
2022-11-19T21:09:19.685Z,4.22
2022-11-19T21:11:49.075Z,4.05
2022-11-19T21:14:17.041Z,4.40
2022-11-19T21:16:45.079Z,4.90
2022-11-19T21:19:15.610Z,3.60
2022-11-19T21:21:44.464Z,4.85
2022-11-19T21:24:12.655Z,4.80
2022-11-19T21:26:40.910Z,4.43
2022-11-19T21:29:08.976Z,5.22
2022-11-19T21:31:43.081Z,5.03
2022-11-19T21:34:12.531Z,5.07
2022-11-19T21:36:43.588Z,7.00
2022-11-19T21:39:13.937Z,5.25
2022-11-19T21:41:42.036Z,5.38
2022-11-19T21:44:10.354Z,6.85
2022-11-19T21:46:38.417Z,6.00
2022-11-19T21:49:06.448Z,5.18
2022-11-19T21:51:34.653Z,5.10
2022-11-19T21:54:04.112Z,5.05
2022-11-19T21:56:38.265Z,5.50
2022-11-19T21:59:07.618Z,4.85
2022-11-19T22:01:35.805Z,5.07
2022-11-19T22:04:04.028Z,5.65
2022-11-19T22:06:32.858Z,5.50
2022-11-19T22:09:01.036Z,5.20
2022-11-19T22:11:30.917Z,4.90
2022-11-19T22:14:01.971Z,4.90
2022-11-19T22:16:30.642Z,5.15
2022-11-19T22:18:58.632Z,4.97
2022-11-19T22:21:27.687Z,4.93
2022-11-19T22:23:55.800Z,5.32
2022-11-19T22:26:23.754Z,4.90
2022-11-19T22:28:53.361Z,4.93
2022-11-19T22:31:21.381Z,4.65
2022-11-19T22:33:51.706Z,4.50
2022-11-19T22:36:21.370Z,4.55
2022-11-19T22:38:49.899Z,4.38
2022-11-19T22:41:19.570Z,3.97
2022-11-19T22:43:47.972Z,3.78
2022-11-19T22:46:18.168Z,3.78
2022-11-19T22:48:46.402Z,3.38
2022-11-19T22:51:16.499Z,3.28
2022-11-19T22:53:45.316Z,3.78
2022-11-19T22:56:15.721Z,3.40
2022-11-19T22:58:44.341Z,3.72
2022-11-19T23:01:18.708Z,3.50
2022-11-19T23:03:46.871Z,3.78
2022-11-19T23:06:15.606Z,3.53
2022-11-19T23:08:43.657Z,3.83
2022-11-19T23:11:12.282Z,3.72
2022-11-19T23:13:41.555Z,3.60
2022-11-19T23:16:11.562Z,3.35
2022-11-19T23:18:42.596Z,3.58
2022-11-19T23:21:12.662Z,3.35
2022-11-19T23:23:40.752Z,3.60
2022-11-19T23:26:10.577Z,3.35
2022-11-19T23:28:39.903Z,2.90
2022-11-19T23:31:09.763Z,2.67
2022-11-19T23:33:38.217Z,2.88
2022-11-19T23:36:11.520Z,2.80
2022-11-19T23:38:40.130Z,2.80
2022-11-19T23:41:09.940Z,2.65
2022-11-19T23:43:38.632Z,2.50
2022-11-19T23:46:09.456Z,2.40
2022-11-19T23:48:38.635Z,2.55
2022-11-19T23:51:09.708Z,2.60
2022-11-19T23:53:37.614Z,2.70
2022-11-19T23:56:06.391Z,2.47
2022-11-19T23:58:35.440Z,2.28
